Terminal Aerodrome Forecast
Issued by NWS

Home | Current Version | Previous Version | Text Only | Print | Product List | Glossary On
Versions: 1 2 3 4 5 6 7 8 9 10 11 12 13 14 15 16 17
000
FTUS46 KHNX 310520
TAFFAT
TAF
KFAT 310520Z 3106/0106 07003KT 3SM HZ SCT120
     FM310800 00000KT 1SM BR SKC
     FM311000 00000KT 1/4SM FG VV001
     FM311500 00000KT 1SM BR BKN005
     FM311800 VRB03KT 2SM BR SCT009
     FM312000 VRB03KT 3SM HZ SCT020=

USA.gov is the U.S. government's official web portal to all federal, state and local government web resources and services.